createdAt,value
2022-10-17T00:01:08.177Z,101913.22
2022-10-17T00:03:37.112Z,101909.78
2022-10-17T00:06:08.290Z,101907.16
2022-10-17T00:08:36.317Z,101911.50
2022-10-17T00:11:07.322Z,101917.56
2022-10-17T00:13:35.439Z,101919.28
2022-10-17T00:16:03.301Z,101920.16
2022-10-17T00:18:32.507Z,101912.38
2022-10-17T00:21:00.382Z,101918.44
2022-10-17T00:23:30.238Z,101915.81
2022-10-17T00:26:02.082Z,101908.06
2022-10-17T00:28:29.993Z,101902.84
2022-10-17T00:30:58.670Z,101898.50
2022-10-17T00:33:26.761Z,101908.94
2022-10-17T00:36:05.585Z,101896.81
2022-10-17T00:38:33.534Z,101889.00
2022-10-17T00:41:01.625Z,101878.59
2022-10-17T00:43:29.723Z,101873.41
2022-10-17T00:45:57.967Z,101892.44
2022-10-17T00:48:27.092Z,101900.19
2022-10-17T00:50:55.083Z,101901.03
2022-10-17T00:53:24.639Z,101905.34
2022-10-17T00:55:54.396Z,101901.03
2022-10-17T00:58:22.619Z,101897.53
2022-10-17T01:00:50.725Z,101881.03
2022-10-17T01:03:18.827Z,101899.22
2022-10-17T01:05:47.540Z,101907.84
2022-10-17T01:08:15.488Z,101905.25
2022-10-17T01:10:52.335Z,101907.81
2022-10-17T01:13:25.248Z,101914.72
2022-10-17T01:16:01.523Z,101905.16
2022-10-17T01:18:38.062Z,101910.34
2022-10-17T01:21:26.092Z,101903.38
2022-10-17T01:24:32.496Z,101905.16
2022-10-17T01:27:16.752Z,101898.19
2022-10-17T01:30:01.430Z,101893.81
2022-10-17T01:32:35.582Z,101886.84
2022-10-17T01:35:06.733Z,101899.84
2022-10-17T01:37:39.633Z,101898.97
2022-10-17T01:40:11.586Z,101889.38
2022-10-17T01:42:43.853Z,101891.09
2022-10-17T01:45:15.499Z,101884.16
2022-10-17T01:47:47.525Z,101878.91
2022-10-17T01:50:18.397Z,101872.81
2022-10-17T01:52:49.569Z,101871.88
2022-10-17T01:55:20.962Z,101874.53
2022-10-17T01:57:51.514Z,101876.31
2022-10-17T02:00:21.747Z,101878.88
2022-10-17T02:02:57.280Z,101877.19
2022-10-17T02:05:28.056Z,101892.75
2022-10-17T02:07:55.943Z,101889.38
2022-10-17T02:10:32.088Z,101898.00
2022-10-17T02:13:05.505Z,101887.59
2022-10-17T02:15:59.859Z,101884.16
2022-10-17T02:19:09.950Z,101881.53
2022-10-17T02:21:43.383Z,101888.47
2022-10-17T02:24:19.412Z,101895.41
2022-10-17T02:26:51.709Z,101893.69
2022-10-17T02:29:21.115Z,101892.84
2022-10-17T02:31:52.715Z,101880.66
2022-10-17T02:34:26.912Z,101887.56
2022-10-17T02:36:57.455Z,101884.88
2022-10-17T02:39:26.462Z,101886.59
2022-10-17T02:41:55.518Z,101881.38
2022-10-17T02:44:24.279Z,101876.13
2022-10-17T02:46:56.640Z,101883.06
2022-10-17T02:49:28.570Z,101878.69
2022-10-17T02:52:02.438Z,101887.34
2022-10-17T02:54:35.435Z,101880.38
2022-10-17T02:57:08.719Z,101876.81
2022-10-17T02:59:37.410Z,101877.69
2022-10-17T03:02:06.023Z,101886.28
2022-10-17T03:04:35.729Z,101885.44
2022-10-17T03:07:12.734Z,101898.50
2022-10-17T03:09:40.552Z,101886.44
2022-10-17T03:12:08.448Z,101899.41
2022-10-17T03:14:36.791Z,101890.72
2022-10-17T03:17:05.154Z,101889.00
2022-10-17T03:19:35.041Z,101885.44
2022-10-17T03:22:03.098Z,101891.59
2022-10-17T03:24:32.275Z,101889.00
2022-10-17T03:27:00.152Z,101882.00
2022-10-17T03:29:28.296Z,101876.75
2022-10-17T03:31:56.987Z,101870.78
2022-10-17T03:34:24.871Z,101889.88
2022-10-17T03:36:54.355Z,101876.03
2022-10-17T03:39:23.018Z,101863.88
2022-10-17T03:41:50.835Z,101869.03
2022-10-17T03:44:19.204Z,101869.00
2022-10-17T03:46:47.102Z,101875.13
2022-10-17T03:49:16.026Z,101883.78
2022-10-17T03:51:43.939Z,101886.34
2022-10-17T03:54:16.499Z,101878.44
2022-10-17T03:56:44.623Z,101871.34
2022-10-17T03:59:16.622Z,101870.44
2022-10-17T04:01:51.525Z,101858.16
2022-10-17T04:04:20.151Z,101867.75
2022-10-17T04:06:47.953Z,101871.16
2022-10-17T04:09:17.408Z,101874.63
2022-10-17T04:11:59.871Z,101872.97
2022-10-17T04:14:27.935Z,101862.53
2022-10-17T04:16:55.863Z,101871.16
2022-10-17T04:19:23.755Z,101858.06
2022-10-17T04:21:51.696Z,101850.91
2022-10-17T04:24:21.967Z,101852.56
2022-10-17T04:26:59.112Z,101849.19
2022-10-17T04:29:30.046Z,101852.66
2022-10-17T04:32:06.518Z,101847.44
2022-10-17T04:34:40.930Z,101851.66
2022-10-17T04:37:08.855Z,101848.00
2022-10-17T04:39:38.931Z,101841.78
2022-10-17T04:42:07.015Z,101838.31
2022-10-17T04:44:35.702Z,101826.06
2022-10-17T04:47:03.756Z,101820.84
2022-10-17T04:49:32.630Z,101823.34
2022-10-17T04:52:08.856Z,101821.41
2022-10-17T04:54:42.238Z,101822.31
2022-10-17T04:57:12.316Z,101831.09
2022-10-17T04:59:42.074Z,101817.22
2022-10-17T05:02:19.722Z,101812.06
2022-10-17T05:04:48.536Z,101813.63
2022-10-17T05:07:17.330Z,101818.09
2022-10-17T05:10:07.109Z,101820.66
2022-10-17T05:12:35.020Z,101809.34
2022-10-17T05:15:02.925Z,101816.00
2022-10-17T05:17:31.650Z,101811.78
2022-10-17T05:19:59.550Z,101809.28
2022-10-17T05:22:27.534Z,101808.34
2022-10-17T05:24:57.032Z,101810.09
2022-10-17T05:27:26.277Z,101807.28
2022-10-17T05:29:54.365Z,101793.50
2022-10-17T05:32:28.421Z,101800.41
2022-10-17T05:34:56.757Z,101805.03
2022-10-17T05:37:26.323Z,101807.47
2022-10-17T05:39:56.967Z,101806.56
2022-10-17T05:42:27.619Z,101797.84
2022-10-17T05:44:55.880Z,101794.34
2022-10-17T05:47:23.933Z,101795.19
2022-10-17T05:49:52.634Z,101796.88
2022-10-17T05:52:27.228Z,101795.28
2022-10-17T05:55:07.940Z,101792.84
2022-10-17T05:57:37.217Z,101796.94
2022-10-17T06:00:09.138Z,101793.53
2022-10-17T06:02:43.151Z,101797.03
2022-10-17T06:05:13.748Z,101803.09
2022-10-17T06:07:42.144Z,101808.19
2022-10-17T06:10:12.361Z,101803.75
2022-10-17T06:12:41.983Z,101795.88
2022-10-17T06:15:10.944Z,101784.50
2022-10-17T06:17:40.432Z,101784.50
2022-10-17T06:20:09.567Z,101783.63
2022-10-17T06:22:37.410Z,101779.28
2022-10-17T06:25:10.697Z,101780.06
2022-10-17T06:27:38.580Z,101777.38
2022-10-17T06:30:09.216Z,101782.72
2022-10-17T06:32:37.116Z,101782.66
2022-10-17T06:35:05.200Z,101781.72
2022-10-17T06:37:36.536Z,101784.25
2022-10-17T06:40:10.462Z,101786.75
2022-10-17T06:42:39.329Z,101787.53
2022-10-17T06:45:29.212Z,101783.06
2022-10-17T06:48:16.747Z,101777.75
2022-10-17T06:50:51.567Z,101777.56
2022-10-17T06:53:25.116Z,101774.94
2022-10-17T06:56:27.225Z,101775.09
2022-10-17T06:59:22.793Z,101769.56
2022-10-17T07:01:58.664Z,101767.97
2022-10-17T07:04:27.296Z,101752.16
2022-10-17T07:06:55.205Z,101760.63
2022-10-17T07:09:27.720Z,101756.34
2022-10-17T07:11:58.706Z,101762.13
2022-10-17T07:14:31.836Z,101745.47
2022-10-17T07:17:01.836Z,101749.50
2022-10-17T07:19:32.404Z,101746.66
2022-10-17T07:22:00.525Z,101740.66
2022-10-17T07:24:29.084Z,101749.13
2022-10-17T07:27:09.205Z,101746.28
2022-10-17T07:29:37.055Z,101748.38
2022-10-17T07:32:11.168Z,101738.63
2022-10-17T07:34:39.052Z,101739.38
2022-10-17T07:37:09.887Z,101742.31
2022-10-17T07:39:40.033Z,101737.72
2022-10-17T07:42:08.632Z,101740.19
2022-10-17T07:44:36.651Z,101734.78
2022-10-17T07:47:05.199Z,101730.09
2022-10-17T07:49:34.408Z,101734.16
2022-10-17T07:52:02.381Z,101737.41
2022-10-17T07:54:30.223Z,101732.75
2022-10-17T07:56:58.057Z,101738.00
2022-10-17T07:59:25.884Z,101735.22
2022-10-17T08:01:56.517Z,101743.97
2022-10-17T08:04:24.930Z,101740.28
2022-10-17T08:07:05.415Z,101733.06
2022-10-17T08:09:39.821Z,101728.09
2022-10-17T08:12:07.723Z,101722.03
2022-10-17T08:14:35.692Z,101721.78
2022-10-17T08:17:03.973Z,101718.78
2022-10-17T08:19:31.926Z,101714.13
2022-10-17T08:22:02.020Z,101715.53
2022-10-17T08:24:29.852Z,101705.38
2022-10-17T08:26:58.330Z,101709.75
2022-10-17T08:29:26.208Z,101714.44
2022-10-17T08:31:58.608Z,101713.72
2022-10-17T08:34:29.412Z,101720.47
2022-10-17T08:36:57.394Z,101728.72
2022-10-17T08:39:26.572Z,101718.00
2022-10-17T08:42:04.677Z,101715.75
2022-10-17T08:44:43.344Z,101702.19
2022-10-17T08:47:12.784Z,101713.69
2022-10-17T08:49:46.935Z,101714.94
2022-10-17T08:52:19.671Z,101698.25
2022-10-17T08:54:49.406Z,101697.63
2022-10-17T08:57:18.650Z,101690.97
2022-10-17T08:59:51.988Z,101691.00
2022-10-17T09:02:37.003Z,101674.44
2022-10-17T09:05:34.379Z,101668.69
2022-10-17T09:08:12.274Z,101670.25
2022-10-17T09:10:51.837Z,101676.91
2022-10-17T09:13:28.412Z,101679.97
2022-10-17T09:16:04.710Z,101677.69
2022-10-17T09:18:34.327Z,101686.03
2022-10-17T09:21:05.449Z,101687.13
2022-10-17T09:23:42.612Z,101684.75
2022-10-17T09:26:12.565Z,101680.91
2022-10-17T09:28:42.124Z,101677.34
2022-10-17T09:31:15.281Z,101678.38
2022-10-17T09:33:59.987Z,101678.81
2022-10-17T09:36:30.911Z,101663.84
2022-10-17T09:39:00.747Z,101658.94
2022-10-17T09:41:50.499Z,101672.53
2022-10-17T09:44:22.461Z,101687.34
2022-10-17T09:47:04.207Z,101676.84
2022-10-17T09:49:33.739Z,101673.97
2022-10-17T09:52:02.293Z,101681.31
2022-10-17T09:54:37.711Z,101674.66
2022-10-17T09:57:09.707Z,101671.47
2022-10-17T09:59:39.099Z,101676.69
2022-10-17T10:02:16.415Z,101674.19
2022-10-17T10:05:09.280Z,101657.69
2022-10-17T10:07:39.138Z,101657.19
2022-10-17T10:10:09.847Z,101664.00
2022-10-17T10:12:40.131Z,101665.63
2022-10-17T10:15:34.426Z,101673.84
2022-10-17T10:18:02.487Z,101666.00
2022-10-17T10:20:34.245Z,101674.03
2022-10-17T10:23:13.280Z,101673.94
2022-10-17T10:25:51.199Z,101665.41
2022-10-17T10:28:20.603Z,101661.63
2022-10-17T10:30:50.608Z,101663.06
2022-10-17T10:33:20.607Z,101660.53
2022-10-17T10:35:55.146Z,101656.56
2022-10-17T10:38:23.081Z,101660.91
2022-10-17T10:40:52.411Z,101667.19
2022-10-17T10:43:28.457Z,101663.13
2022-10-17T10:45:56.342Z,101665.94
2022-10-17T10:48:25.425Z,101671.91
2022-10-17T10:50:55.578Z,101660.13
2022-10-17T10:53:35.375Z,101668.31
2022-10-17T10:56:07.710Z,101683.47
2022-10-17T10:58:43.036Z,101669.31
2022-10-17T11:01:16.716Z,101663.88
2022-10-17T11:03:55.722Z,101672.22
2022-10-17T11:06:26.398Z,101669.47
2022-10-17T11:09:10.911Z,101662.88
2022-10-17T11:11:42.806Z,101667.81
2022-10-17T11:14:16.191Z,101658.47
2022-10-17T11:16:48.346Z,101661.97
2022-10-17T11:19:21.398Z,101646.53
2022-10-17T11:21:52.815Z,101655.81
2022-10-17T11:24:25.622Z,101650.63
2022-10-17T11:26:56.932Z,101659.38
2022-10-17T11:29:29.978Z,101662.09
2022-10-17T11:32:00.502Z,101666.06
2022-10-17T11:34:30.976Z,101656.47
2022-10-17T11:37:00.996Z,101660.47
2022-10-17T11:39:32.674Z,101663.69
2022-10-17T11:42:04.344Z,101669.41
2022-10-17T11:44:36.580Z,101673.34
2022-10-17T11:47:07.767Z,101676.25
2022-10-17T11:49:39.939Z,101661.22
2022-10-17T11:52:44.380Z,101664.59
2022-10-17T11:55:18.367Z,101666.72
2022-10-17T11:57:56.268Z,101661.25
2022-10-17T12:00:34.123Z,101672.53
2022-10-17T12:03:12.025Z,101672.94
2022-10-17T12:05:44.451Z,101672.56
2022-10-17T12:08:18.115Z,101667.63
2022-10-17T12:10:49.961Z,101664.91
2022-10-17T12:13:50.372Z,101662.03
2022-10-17T12:16:45.217Z,101651.25
2022-10-17T12:19:30.790Z,101645.03
2022-10-17T12:22:00.519Z,101641.06
2022-10-17T12:24:37.970Z,101638.88
2022-10-17T12:27:46.033Z,101646.22
2022-10-17T12:30:25.349Z,101652.63
2022-10-17T12:33:06.769Z,101642.72
2022-10-17T12:35:36.937Z,101639.22
2022-10-17T12:38:29.206Z,101626.25
2022-10-17T12:41:01.306Z,101620.53
2022-10-17T12:43:56.293Z,101615.47
2022-10-17T12:46:47.757Z,101616.78
2022-10-17T12:49:48.264Z,101620.38
2022-10-17T12:52:28.931Z,101628.78
2022-10-17T12:55:14.369Z,101628.91
2022-10-17T12:57:49.285Z,101620.47
2022-10-17T13:00:22.238Z,101628.06
2022-10-17T13:02:51.103Z,101632.69
2022-10-17T13:05:25.106Z,101629.59
2022-10-17T13:07:53.367Z,101618.66
2022-10-17T13:10:22.908Z,101613.84
2022-10-17T13:12:51.344Z,101620.78
2022-10-17T13:15:20.704Z,101613.94
2022-10-17T13:17:57.193Z,101613.59
2022-10-17T13:20:31.269Z,101602.34
2022-10-17T13:23:00.791Z,101600.22
2022-10-17T13:25:29.023Z,101594.13
2022-10-17T13:28:11.781Z,101596.47
2022-10-17T13:30:39.669Z,101605.59
2022-10-17T13:33:20.458Z,101589.03
2022-10-17T13:36:05.686Z,101581.09
2022-10-17T13:38:36.749Z,101591.34
2022-10-17T13:41:34.120Z,101585.63
2022-10-17T13:44:02.770Z,101584.41
2022-10-17T13:46:38.265Z,101576.50
2022-10-17T13:49:12.967Z,101576.66
2022-10-17T13:51:45.374Z,101583.34
2022-10-17T13:54:25.627Z,101594.34
2022-10-17T13:56:57.088Z,101608.66
2022-10-17T13:59:28.607Z,101607.53
2022-10-17T14:01:57.002Z,101620.41
2022-10-17T14:04:24.917Z,101616.03
2022-10-17T14:06:54.202Z,101614.44
2022-10-17T14:09:23.863Z,101620.16
2022-10-17T14:12:00.377Z,101628.69
2022-10-17T14:14:32.162Z,101648.94
2022-10-17T14:17:14.357Z,101649.81
2022-10-17T14:19:42.395Z,101645.44
2022-10-17T14:22:19.803Z,101662.94
2022-10-17T14:24:48.013Z,101668.91
2022-10-17T14:27:28.535Z,101684.06
2022-10-17T14:30:00.645Z,101690.03
2022-10-17T14:32:29.652Z,101678.47
2022-10-17T14:35:17.807Z,101686.59
2022-10-17T14:37:49.803Z,101682.19
2022-10-17T14:40:20.082Z,101691.50
2022-10-17T14:42:48.445Z,101703.41
2022-10-17T14:45:23.490Z,101708.75
2022-10-17T14:47:52.234Z,101706.41
2022-10-17T14:50:25.242Z,101699.34
2022-10-17T14:53:06.334Z,101716.97
2022-10-17T14:55:36.200Z,101710.16
2022-10-17T14:58:17.203Z,101705.56
2022-10-17T15:00:45.053Z,101728.13
2022-10-17T15:03:13.674Z,101718.97
2022-10-17T15:05:41.581Z,101719.28
2022-10-17T15:08:14.094Z,101710.38
2022-10-17T15:10:42.731Z,101704.38
2022-10-17T15:13:28.884Z,101693.56
2022-10-17T15:15:58.214Z,101715.09
2022-10-17T15:18:26.129Z,101714.16
2022-10-17T15:21:04.567Z,101700.34
2022-10-17T15:23:35.990Z,101674.66
2022-10-17T15:26:03.974Z,101666.16
2022-10-17T15:28:31.930Z,101666.09
2022-10-17T15:30:59.950Z,101685.34
2022-10-17T15:33:27.867Z,101701.59
2022-10-17T15:35:55.757Z,101708.25
2022-10-17T15:38:23.624Z,101709.47
2022-10-17T15:40:52.898Z,101694.94
2022-10-17T15:43:20.691Z,101683.81
2022-10-17T15:45:48.666Z,101688.69
2022-10-17T15:48:20.241Z,101695.63
2022-10-17T15:50:48.080Z,101688.81
2022-10-17T15:53:16.279Z,101670.84
2022-10-17T15:55:44.146Z,101670.00
2022-10-17T15:58:16.536Z,101681.34
2022-10-17T16:00:44.804Z,101679.59
2022-10-17T16:03:12.790Z,101666.31
2022-10-17T16:05:40.663Z,101673.56
2022-10-17T16:08:08.583Z,101675.47
2022-10-17T16:10:38.366Z,101676.97
2022-10-17T16:13:06.251Z,101687.63
2022-10-17T16:15:35.488Z,101697.44
2022-10-17T16:18:06.634Z,101715.47
2022-10-17T16:20:36.520Z,101720.88
2022-10-17T16:23:05.287Z,101726.13
2022-10-17T16:25:33.454Z,101729.28
2022-10-17T16:28:01.779Z,101742.53
2022-10-17T16:30:31.079Z,101744.09
2022-10-17T16:33:00.635Z,101756.84
2022-10-17T16:35:33.393Z,101756.72
2022-10-17T16:38:04.778Z,101754.22
2022-10-17T16:40:32.801Z,101772.47
2022-10-17T16:43:00.767Z,101770.69
2022-10-17T16:45:28.807Z,101774.13
2022-10-17T16:47:56.823Z,101781.16
2022-10-17T16:50:26.203Z,101786.44
2022-10-17T16:52:54.248Z,101791.56
2022-10-17T16:55:22.161Z,101804.97
2022-10-17T16:57:50.043Z,101809.56
2022-10-17T17:00:18.687Z,101807.91
2022-10-17T17:02:48.365Z,101811.66
2022-10-17T17:05:16.619Z,101823.97
2022-10-17T17:07:47.698Z,101821.50
2022-10-17T17:10:15.728Z,101836.44
2022-10-17T17:12:43.710Z,101847.16
2022-10-17T17:15:11.635Z,101852.84
2022-10-17T17:17:55.725Z,101853.13
2022-10-17T17:20:24.006Z,101858.06
2022-10-17T17:22:53.248Z,101863.84
2022-10-17T17:25:21.094Z,101880.66
2022-10-17T17:27:49.016Z,101884.53
2022-10-17T17:30:17.014Z,101886.22
2022-10-17T17:32:44.905Z,101886.75
2022-10-17T17:35:12.827Z,101886.97
2022-10-17T17:37:40.767Z,101895.59
2022-10-17T17:40:11.523Z,101898.44
2022-10-17T17:42:39.447Z,101892.47
2022-10-17T17:45:08.387Z,101891.69
2022-10-17T17:47:36.345Z,101887.69
2022-10-17T17:50:04.714Z,101895.44
2022-10-17T17:52:32.931Z,101905.22
2022-10-17T17:55:01.147Z,101899.97
2022-10-17T17:57:31.620Z,101897.34
2022-10-17T17:59:59.591Z,101903.59
2022-10-17T18:02:27.683Z,101901.03
2022-10-17T18:04:55.792Z,101909.78
2022-10-17T18:07:23.797Z,101908.16
2022-10-17T18:09:51.972Z,101901.28
2022-10-17T18:12:19.950Z,101901.28
2022-10-17T18:14:50.115Z,101895.09
2022-10-17T18:17:18.042Z,101888.81
2022-10-17T18:19:45.998Z,101883.38
2022-10-17T18:22:13.965Z,101890.53
2022-10-17T18:24:42.557Z,101893.28
2022-10-17T18:27:12.655Z,101895.25
2022-10-17T18:29:40.625Z,101902.28
2022-10-17T18:32:10.126Z,101903.13
2022-10-17T18:34:38.068Z,101914.50
2022-10-17T18:37:06.054Z,101915.50
2022-10-17T18:39:34.134Z,101918.91
2022-10-17T18:42:02.331Z,101923.25
2022-10-17T18:44:30.476Z,101924.97
2022-10-17T18:47:02.937Z,101929.41
2022-10-17T18:49:33.676Z,101931.97
2022-10-17T18:52:01.558Z,101932.09
2022-10-17T18:54:32.125Z,101933.97
2022-10-17T18:57:00.141Z,101938.41
2022-10-17T18:59:28.345Z,101951.38
2022-10-17T19:01:56.380Z,101946.91
2022-10-17T19:04:24.438Z,101948.06
2022-10-17T19:06:53.762Z,101945.22
2022-10-17T19:09:21.742Z,101942.72
2022-10-17T19:11:49.694Z,101948.16
2022-10-17T19:14:17.675Z,101945.59
2022-10-17T19:16:47.359Z,101951.38
2022-10-17T19:19:17.045Z,101957.81
2022-10-17T19:21:45.231Z,101957.81
2022-10-17T19:24:16.117Z,101962.81
2022-10-17T19:26:45.058Z,101961.03
2022-10-17T19:29:14.990Z,101958.53
2022-10-17T19:31:43.323Z,101969.75
2022-10-17T19:34:11.651Z,101963.75
2022-10-17T19:36:40.129Z,101957.63
2022-10-17T19:39:09.567Z,101961.09
2022-10-17T19:41:41.185Z,101957.50
2022-10-17T19:44:09.294Z,101959.16
2022-10-17T19:46:37.300Z,101966.50
2022-10-17T19:49:06.119Z,101962.06
2022-10-17T19:51:34.482Z,101971.81
2022-10-17T19:54:05.410Z,101968.16
2022-10-17T19:56:37.616Z,101967.34
2022-10-17T19:59:08.426Z,101967.34
2022-10-17T20:01:38.816Z,101964.84
2022-10-17T20:04:07.281Z,101964.06
2022-10-17T20:06:35.949Z,101974.53
2022-10-17T20:09:04.874Z,101974.38
2022-10-17T20:11:32.750Z,101970.94
2022-10-17T20:14:01.845Z,101976.91
2022-10-17T20:16:33.187Z,101989.22
2022-10-17T20:19:05.566Z,101995.28
2022-10-17T20:21:35.115Z,101995.34
2022-10-17T20:24:04.777Z,101988.19
2022-10-17T20:26:38.042Z,101996.22
2022-10-17T20:29:10.869Z,102001.63
2022-10-17T20:31:55.388Z,101999.69
2022-10-17T20:34:23.351Z,102004.09
2022-10-17T20:36:52.019Z,102005.72
2022-10-17T20:39:21.371Z,102012.84
2022-10-17T20:41:49.342Z,102013.91
2022-10-17T20:44:17.327Z,102017.38
2022-10-17T20:47:00.608Z,102012.09
2022-10-17T20:49:31.406Z,102020.91
2022-10-17T20:51:59.558Z,102029.19
2022-10-17T20:54:29.347Z,102025.56
2022-10-17T20:56:59.866Z,102024.03
2022-10-17T20:59:30.760Z,102037.38
2022-10-17T21:01:58.828Z,102041.50
2022-10-17T21:04:45.556Z,102039.88
2022-10-17T21:07:16.055Z,102042.41
2022-10-17T21:09:45.369Z,102043.69
2022-10-17T21:12:18.193Z,102038.28
2022-10-17T21:14:54.127Z,102034.44
2022-10-17T21:17:22.131Z,102048.88
2022-10-17T21:19:50.095Z,102048.88
2022-10-17T21:22:19.463Z,102052.66
2022-10-17T21:24:47.415Z,102053.69
2022-10-17T21:27:17.343Z,102056.09
2022-10-17T21:29:45.320Z,102062.31
2022-10-17T21:32:25.193Z,102062.53
2022-10-17T21:35:01.337Z,102052.03
2022-10-17T21:37:30.687Z,102063.34
2022-10-17T21:39:58.560Z,102058.25
2022-10-17T21:42:26.799Z,102055.69
2022-10-17T21:44:54.830Z,102052.97
2022-10-17T21:47:25.553Z,102056.59
2022-10-17T21:49:56.083Z,102043.69
2022-10-17T21:52:23.994Z,102049.78
2022-10-17T21:54:53.306Z,102046.63
2022-10-17T21:57:21.239Z,102049.34
2022-10-17T21:59:50.115Z,102048.25
2022-10-17T22:02:18.109Z,102048.06
2022-10-17T22:04:45.989Z,102043.25
2022-10-17T22:07:15.154Z,102054.91
2022-10-17T22:09:44.274Z,102062.13
2022-10-17T22:12:13.586Z,102054.31
2022-10-17T22:14:41.527Z,102058.34
2022-10-17T22:17:09.428Z,102063.06
2022-10-17T22:19:37.335Z,102060.97
2022-10-17T22:22:05.233Z,102067.09
2022-10-17T22:24:33.211Z,102067.81
2022-10-17T22:27:01.247Z,102074.00
2022-10-17T22:29:30.637Z,102075.13
2022-10-17T22:31:58.567Z,102079.75
2022-10-17T22:34:26.578Z,102071.66
2022-10-17T22:36:54.755Z,102080.56
2022-10-17T22:39:22.660Z,102086.19
2022-10-17T22:41:50.558Z,102084.19
2022-10-17T22:44:18.538Z,102082.47
2022-10-17T22:46:47.768Z,102078.28
2022-10-17T22:49:15.878Z,102084.31
2022-10-17T22:51:43.798Z,102082.75
2022-10-17T22:54:11.711Z,102086.50
2022-10-17T22:56:39.694Z,102087.53
2022-10-17T22:59:07.603Z,102093.78
2022-10-17T23:01:35.589Z,102094.50
2022-10-17T23:04:04.911Z,102106.88
2022-10-17T23:06:32.901Z,102099.56
2022-10-17T23:09:00.827Z,102104.72
2022-10-17T23:11:28.722Z,102108.34
2022-10-17T23:13:56.707Z,102104.94
2022-10-17T23:16:24.665Z,102118.66
2022-10-17T23:18:52.639Z,102107.44
2022-10-17T23:21:22.146Z,102109.91
2022-10-17T23:23:50.061Z,102106.81
2022-10-17T23:26:18.046Z,102100.75
2022-10-17T23:28:46.054Z,102108.59
2022-10-17T23:31:15.884Z,102112.97
2022-10-17T23:33:44.870Z,102113.09
2022-10-17T23:36:13.776Z,102110.72
2022-10-17T23:38:43.883Z,102126.53
2022-10-17T23:41:13.373Z,102123.09
2022-10-17T23:43:41.876Z,102133.66
2022-10-17T23:46:10.315Z,102134.38
2022-10-17T23:48:38.891Z,102130.91
2022-10-17T23:51:07.247Z,102131.03
2022-10-17T23:53:35.524Z,102129.34
2022-10-17T23:56:05.516Z,102130.34
2022-10-17T23:58:33.791Z,102123.31
